Time;durP1;ratioP1;P1;durP2;ratioP2;P2;SDS_P1;SDS_P2;PMS_P1;PMS_P2;Temp;Humidity;BMP_temperature;BMP_pressure;BME280_temperature;BME280_humidity;BME280_pressure;Samples;Min_cycle;Max_cycle;Signal;HPM_P1;HPM_P2
2022/03/20 00:00:44;;;;;;;8.68;4.85;;;6.00;62.40;;;;;;6187044;23;20492;-84
2022/03/20 00:03:11;;;;;;;10.35;5.38;;;6.00;62.50;;;;;;6186308;23;20063;-80
2022/03/20 00:05:39;;;;;;;8.35;4.93;;;6.00;62.50;;;;;;6184522;23;20445;-82
2022/03/20 00:08:12;;;;;;;11.63;5.15;;;5.90;62.70;;;;;;6185064;23;20021;-83
2022/03/20 00:10:45;;;;;;;9.47;4.97;;;5.90;62.70;;;;;;6185758;23;20020;-83
2022/03/20 00:13:12;;;;;;;9.68;5.15;;;5.90;62.90;;;;;;6188156;23;20247;-84
2022/03/20 00:15:40;;;;;;;8.75;4.68;;;6.20;63.20;;;;;;6186011;23;20088;-85
2022/03/20 00:18:14;;;;;;;8.25;5.20;;;5.80;63.20;;;;;;6185852;23;20013;-84
2022/03/20 00:20:43;;;;;;;8.23;4.97;;;5.80;63.50;;;;;;6194699;23;20052;-87
2022/03/20 00:23:10;;;;;;;9.10;5.78;;;6.00;63.60;;;;;;6196370;23;20013;-86
2022/03/20 00:25:42;;;;;;;8.13;4.88;;;5.70;63.70;;;;;;6173771;23;20025;-87
2022/03/20 00:28:09;;;;;;;12.68;5.05;;;5.60;63.60;;;;;;6202810;23;20438;-85
2022/03/20 00:30:34;;;;;;;10.75;5.78;;;5.60;63.80;;;;;;6196142;23;20492;-85
2022/03/20 00:33:00;;;;;;;11.18;5.45;;;5.60;64.10;;;;;;6196711;23;20013;-85
2022/03/20 00:35:26;;;;;;;9.25;5.70;;;5.50;63.90;;;;;;6204642;23;20020;-86
2022/03/20 00:37:52;;;;;;;10.57;5.78;;;5.50;64.10;;;;;;6206959;23;20013;-87
2022/03/20 00:40:18;;;;;;;10.23;5.72;;;5.40;64.40;;;;;;6202059;23;20051;-85
2022/03/20 00:42:43;;;;;;;8.73;5.43;;;5.40;64.70;;;;;;6203994;23;20036;-86
2022/03/20 00:45:09;;;;;;;8.55;5.07;;;5.40;64.60;;;;;;6196446;23;20021;-86
2022/03/20 00:47:35;;;;;;;8.75;5.40;;;5.40;64.60;;;;;;6201975;23;20068;-85
2022/03/20 00:50:00;;;;;;;9.60;5.22;;;5.30;64.70;;;;;;6203466;23;20025;-86
2022/03/20 00:52:26;;;;;;;10.05;5.22;;;5.30;64.60;;;;;;6203385;23;20309;-85
2022/03/20 00:54:52;;;;;;;12.27;6.03;;;5.40;65.00;;;;;;6179579;23;20041;-85
2022/03/20 00:57:18;;;;;;;9.70;5.57;;;5.30;65.10;;;;;;6205133;23;20088;-86
2022/03/20 00:59:43;;;;;;;9.00;5.03;;;5.30;65.20;;;;;;6207463;23;20116;-87
2022/03/20 01:02:09;;;;;;;9.27;5.47;;;5.30;65.00;;;;;;6204251;23;20020;-85
2022/03/20 01:04:36;;;;;;;7.38;5.45;;;5.20;65.00;;;;;;6192694;23;20013;-85
2022/03/20 01:07:03;;;;;;;10.07;5.50;;;5.20;65.10;;;;;;6187058;23;20040;-85
2022/03/20 01:09:32;;;;;;;8.57;5.25;;;5.20;65.10;;;;;;6184473;23;20021;-86
2022/03/20 01:11:58;;;;;;;13.10;6.32;;;5.20;65.30;;;;;;6184768;23;20021;-86
2022/03/20 01:14:25;;;;;;;10.35;6.18;;;5.20;65.40;;;;;;6184817;23;20013;-86
2022/03/20 01:21:00;;;;;;;9.25;5.25;;;5.10;65.50;;;;;;6186515;23;20055;-86
2022/03/20 01:23:26;;;;;;;12.05;5.65;;;5.10;65.60;;;;;;6184691;23;20499;-85
2022/03/20 01:25:52;;;;;;;9.73;5.47;;;5.00;65.20;;;;;;6186630;23;20025;-86
2022/03/20 01:28:19;;;;;;;9.07;6.18;;;5.00;65.40;;;;;;6184475;23;20021;-86
2022/03/20 01:30:47;;;;;;;11.32;6.00;;;5.00;65.50;;;;;;6134944;23;20032;-86
2022/03/20 01:33:14;;;;;;;9.95;6.25;;;5.00;65.50;;;;;;6184166;23;20013;-85
2022/03/20 01:35:40;;;;;;;7.93;5.13;;;5.00;65.50;;;;;;6184617;23;20013;-86
2022/03/20 01:38:06;;;;;;;8.85;5.65;;;4.90;65.60;;;;;;6186196;23;20017;-86
2022/03/20 01:40:33;;;;;;;12.27;6.68;;;4.90;65.90;;;;;;6184123;23;20009;-86
2022/03/20 01:42:58;;;;;;;11.07;5.30;;;4.90;66.20;;;;;;6184461;23;20017;-87
2022/03/20 01:45:25;;;;;;;9.25;5.63;;;4.80;65.80;;;;;;6184040;23;20013;-86
2022/03/20 01:47:52;;;;;;;10.85;6.50;;;4.80;66.00;;;;;;6183929;23;20438;-85
2022/03/20 01:50:26;;;;;;;14.50;6.25;;;4.80;66.20;;;;;;6186187;23;20021;-86
2022/03/20 01:52:53;;;;;;;10.85;6.30;;;4.80;66.40;;;;;;6183871;23;20017;-85
2022/03/20 01:55:21;;;;;;;11.25;6.70;;;4.70;66.60;;;;;;6184209;23;20017;-85
2022/03/20 01:57:47;;;;;;;9.95;5.65;;;4.70;66.30;;;;;;6186335;23;20080;-86
2022/03/20 02:00:15;;;;;;;11.23;6.20;;;4.70;66.50;;;;;;6186189;23;20461;-86
2022/03/20 02:02:41;;;;;;;13.13;6.55;;;4.60;66.30;;;;;;6192311;23;20001;-86
2022/03/20 02:05:09;;;;;;;14.00;7.63;;;4.80;66.60;;;;;;6199888;23;20048;-86
2022/03/20 02:07:35;;;;;;;11.20;6.55;;;4.60;66.50;;;;;;6184497;23;20013;-86
2022/03/20 02:10:02;;;;;;;10.65;6.20;;;4.60;66.70;;;;;;6186299;23;20315;-86
2022/03/20 02:12:29;;;;;;;12.30;6.97;;;4.50;66.60;;;;;;6185479;23;20096;-85
2022/03/20 02:14:56;;;;;;;12.52;6.68;;;4.50;66.80;;;;;;6182127;23;20013;-85
2022/03/20 02:17:22;;;;;;;10.27;6.30;;;4.50;66.60;;;;;;6184190;23;20025;-87
2022/03/20 02:19:48;;;;;;;11.82;6.43;;;4.50;67.00;;;;;;6184050;23;20006;-86
2022/03/20 02:22:14;;;;;;;13.57;7.07;;;4.50;66.80;;;;;;6186006;23;20373;-86
2022/03/20 02:24:46;;;;;;;10.80;6.28;;;4.40;66.80;;;;;;6185918;23;20075;-86
2022/03/20 02:27:18;;;;;;;13.38;6.82;;;4.40;67.00;;;;;;6183833;23;20095;-86
2022/03/20 02:29:45;;;;;;;15.07;7.13;;;4.40;66.70;;;;;;6185991;23;20024;-86
2022/03/20 02:32:14;;;;;;;13.15;7.38;;;4.40;66.80;;;;;;6161247;23;20480;-86
2022/03/20 02:34:41;;;;;;;14.50;7.40;;;4.40;66.80;;;;;;6185858;23;20013;-86
2022/03/20 02:37:08;;;;;;;9.18;6.63;;;4.30;66.70;;;;;;6185989;23;20021;-86
2022/03/20 02:39:35;;;;;;;10.23;6.63;;;4.30;66.80;;;;;;6185160;23;20056;-86
2022/03/20 02:42:04;;;;;;;11.73;7.00;;;4.30;67.00;;;;;;6187400;23;20021;-86
2022/03/20 02:44:53;;;;;;;9.05;6.78;;;4.20;66.80;;;;;;6136482;23;20024;-86
2022/03/20 02:47:25;;;;;;;13.38;7.05;;;4.20;66.90;;;;;;6185766;23;20027;-86
2022/03/20 02:49:54;;;;;;;13.73;7.05;;;4.20;66.90;;;;;;6160765;23;20009;-86
2022/03/20 02:52:28;;;;;;;11.93;6.78;;;4.20;66.80;;;;;;6136430;23;20017;-86
2022/03/20 02:55:03;;;;;;;;;;;4.10;66.90;;;;;;6186055;23;20028;-85
2022/03/20 02:57:30;;;;;;;14.00;7.80;;;4.10;67.60;;;;;;6185717;23;20368;-86
2022/03/20 03:00:03;;;;;;;13.90;7.80;;;4.20;67.20;;;;;;6135587;23;20021;-86
2022/03/20 03:02:31;;;;;;;12.35;8.02;;;4.00;67.00;;;;;;6186144;23;20016;-86
2022/03/20 03:04:59;;;;;;;11.73;8.10;;;4.00;67.10;;;;;;6187320;23;20013;-86
2022/03/20 03:07:30;;;;;;;13.18;7.88;;;4.30;67.40;;;;;;6185720;23;20052;-85
2022/03/20 03:12:40;;;;;;;13.23;7.65;;;4.00;67.20;;;;;;6185670;23;20023;-85
2022/03/20 03:15:21;;;;;;;15.88;8.57;;;3.90;67.30;;;;;;6185401;23;20052;-85
2022/03/20 03:17:48;;;;;;;14.50;8.45;;;4.00;67.20;;;;;;6187167;23;20057;-87
2022/03/20 03:20:14;;;;;;;15.02;9.57;;;3.90;67.50;;;;;;6187243;23;20028;-85
2022/03/20 03:22:40;;;;;;;16.10;9.05;;;3.90;67.20;;;;;;6187258;23;20059;-87
2022/03/20 03:25:07;;;;;;;14.10;8.70;;;3.90;67.30;;;;;;6187261;23;20021;-87
2022/03/20 03:27:33;;;;;;;16.48;9.07;;;4.10;67.40;;;;;;6186012;23;20039;-87
2022/03/20 03:29:58;;;;;;;15.90;8.70;;;3.90;67.20;;;;;;6185817;23;20052;-86
2022/03/20 03:32:24;;;;;;;14.10;8.88;;;3.90;67.10;;;;;;6185611;23;20428;-85
2022/03/20 03:37:35;;;;;;;14.70;9.20;;;3.80;66.90;;;;;;6187533;23;20087;-86
2022/03/20 03:40:04;;;;;;;13.18;8.32;;;3.90;66.90;;;;;;6185042;23;20017;-86
2022/03/20 03:42:32;;;;;;;15.38;10.07;;;3.80;66.90;;;;;;6185225;23;20017;-86
2022/03/20 03:44:58;;;;;;;16.27;10.32;;;3.80;66.90;;;;;;6185343;23;20024;-86
2022/03/20 03:47:24;;;;;;;16.38;8.93;;;3.80;66.80;;;;;;6185554;23;20328;-86
2022/03/20 03:49:50;;;;;;;14.70;9.50;;;3.80;66.70;;;;;;6187387;23;20023;-86
2022/03/20 03:52:17;;;;;;;14.85;8.95;;;3.80;66.60;;;;;;6185138;23;20082;-85
2022/03/20 03:54:42;;;;;;;15.75;9.88;;;4.10;66.80;;;;;;6185192;23;20017;-86
2022/03/20 03:57:09;;;;;;;17.02;9.70;;;3.80;66.50;;;;;;6185246;23;20023;-86
2022/03/20 03:59:34;;;;;;;15.68;10.50;;;3.80;66.40;;;;;;6160254;23;20024;-85
2022/03/20 04:02:00;;;;;;;15.23;9.82;;;3.80;66.40;;;;;;6184456;23;20014;-86
2022/03/20 04:04:27;;;;;;;15.65;9.60;;;3.80;66.30;;;;;;6186555;23;20016;-86
2022/03/20 04:06:53;;;;;;;14.93;9.77;;;3.80;66.30;;;;;;6135567;23;20024;-85
2022/03/20 04:09:19;;;;;;;15.88;9.90;;;3.80;66.20;;;;;;6159589;23;20024;-86
2022/03/20 04:11:45;;;;;;;17.25;10.40;;;4.10;66.30;;;;;;6184311;23;20084;-85
2022/03/20 04:14:11;;;;;;;15.00;9.85;;;3.70;66.10;;;;;;6184943;23;20020;-86
2022/03/20 04:16:36;;;;;;;15.57;10.10;;;3.70;66.00;;;;;;6184582;23;20028;-86
2022/03/20 04:19:02;;;;;;;16.83;10.43;;;3.70;66.00;;;;;;6184897;23;20517;-85
2022/03/20 04:21:29;;;;;;;16.08;10.10;;;3.70;65.80;;;;;;6186672;23;20496;-86
2022/03/20 04:23:55;;;;;;;17.88;10.10;;;3.70;65.90;;;;;;6135503;23;20398;-86
2022/03/20 04:26:22;;;;;;;15.75;10.20;;;3.70;65.80;;;;;;6184647;23;20044;-87
2022/03/20 04:28:49;;;;;;;17.63;11.07;;;4.20;66.50;;;;;;6184804;23;20453;-86
2022/03/20 04:31:16;;;;;;;15.10;10.80;;;3.70;65.70;;;;;;6186123;23;20338;-86
2022/03/20 04:33:53;;;;;;;22.33;11.80;;;3.60;65.70;;;;;;6184443;23;20020;-86
2022/03/20 04:36:27;;;;;;;22.88;11.93;;;3.60;65.70;;;;;;6184596;23;20021;-86
2022/03/20 04:38:55;;;;;;;18.55;11.15;;;3.60;65.70;;;;;;6186214;23;20559;-86
2022/03/20 04:41:22;;;;;;;19.17;10.63;;;3.60;65.70;;;;;;6183955;23;20017;-86
2022/03/20 04:43:49;;;;;;;16.23;11.43;;;3.60;65.60;;;;;;6184751;23;20013;-86
2022/03/20 04:46:16;;;;;;;14.75;10.40;;;3.50;65.50;;;;;;6186352;23;20091;-86
2022/03/20 04:59:40;;;;;;;20.30;11.90;;;3.60;65.40;;;;;;6186110;23;20460;-87
2022/03/20 05:02:06;;;;;;;19.63;11.32;;;3.40;65.20;;;;;;6186833;23;20320;-85
2022/03/20 05:04:31;;;;;;;19.80;11.63;;;3.40;65.30;;;;;;6184645;23;20017;-87
2022/03/20 05:06:57;;;;;;;16.88;11.48;;;3.40;65.20;;;;;;6186592;23;20506;-86
2022/03/20 05:14:55;;;;;;;18.48;12.35;;;3.30;65.20;;;;;;6185759;23;20067;-86
2022/03/20 05:17:21;;;;;;;17.80;11.73;;;3.30;65.10;;;;;;6184236;23;20024;-86
2022/03/20 05:19:46;;;;;;;16.30;11.30;;;3.30;65.10;;;;;;6184268;23;20017;-86
2022/03/20 05:22:12;;;;;;;19.03;12.67;;;3.30;65.10;;;;;;6185471;23;20442;-86
2022/03/20 05:24:39;;;;;;;20.30;12.07;;;3.30;65.10;;;;;;6183992;23;20108;-86
2022/03/20 05:27:06;;;;;;;19.20;12.13;;;3.30;65.10;;;;;;6186223;23;20064;-86
2022/03/20 05:29:32;;;;;;;19.10;13.73;;;3.20;65.00;;;;;;6183957;23;20009;-86
2022/03/20 05:31:58;;;;;;;19.25;12.75;;;3.20;65.10;;;;;;6184163;23;20440;-86
2022/03/20 05:34:25;;;;;;;23.50;14.25;;;3.50;65.10;;;;;;6186457;23;20099;-86
2022/03/20 05:36:51;;;;;;;21.50;12.95;;;3.20;64.90;;;;;;6184066;23;20787;-86
2022/03/20 05:39:17;;;;;;;23.97;13.33;;;3.20;64.80;;;;;;6186117;23;20334;-86
2022/03/20 05:41:47;;;;;;;18.30;11.80;;;3.20;64.80;;;;;;6159218;23;20013;-86
2022/03/20 05:44:23;;;;;;;21.30;13.82;;;3.20;64.80;;;;;;6134953;23;20025;-86
2022/03/20 05:46:51;;;;;;;20.05;13.60;;;3.20;64.60;;;;;;6163026;23;20045;-86
2022/03/20 05:49:22;;;;;;;22.13;13.80;;;3.70;64.90;;;;;;6186029;23;20337;-86
2022/03/20 05:51:49;;;;;;;22.37;13.20;;;3.20;64.50;;;;;;6183726;23;20018;-87
2022/03/20 05:54:16;;;;;;;19.80;13.03;;;3.20;64.40;;;;;;6134708;23;20013;-85
2022/03/20 05:59:29;;;;;;;19.37;12.97;;;3.20;64.30;;;;;;6186203;23;20021;-87
2022/03/20 06:01:55;;;;;;;18.80;12.80;;;3.20;64.30;;;;;;6185573;23;20087;-87
2022/03/20 06:04:21;;;;;;;19.03;12.73;;;3.20;64.20;;;;;;6185508;23;20438;-86
2022/03/20 06:06:48;;;;;;;24.60;14.50;;;3.10;64.10;;;;;;6186305;23;20376;-86
2022/03/20 06:09:14;;;;;;;24.30;13.77;;;3.20;64.10;;;;;;6188363;23;20017;-86
2022/03/20 06:11:40;;;;;;;21.90;13.52;;;3.10;64.10;;;;;;6186835;23;20024;-86
2022/03/20 06:14:07;;;;;;;20.85;14.32;;;3.10;64.00;;;;;;6138025;23;20103;-86
2022/03/20 06:16:36;;;;;;;22.23;13.93;;;3.10;64.10;;;;;;6163111;23;20021;-86
2022/03/20 06:19:05;;;;;;;21.50;13.87;;;3.20;64.10;;;;;;6188738;23;20049;-87
2022/03/20 06:21:31;;;;;;;18.50;13.38;;;3.20;63.90;;;;;;6203525;23;20009;-86
2022/03/20 06:23:56;;;;;;;23.97;15.63;;;3.20;63.90;;;;;;6212351;23;20028;-86
2022/03/20 06:26:23;;;;;;;19.25;13.45;;;3.20;63.70;;;;;;6212090;23;20009;-86
2022/03/20 06:28:50;;;;;;;21.88;14.13;;;3.20;63.70;;;;;;6211252;23;20001;-85
2022/03/20 06:31:17;;;;;;;22.73;14.83;;;3.20;63.60;;;;;;6197148;23;20025;-84
2022/03/20 06:33:45;;;;;;;23.87;14.90;;;3.30;63.40;;;;;;6190642;23;20009;-86
2022/03/20 06:36:12;;;;;;;18.95;13.18;;;3.30;63.20;;;;;;6189268;23;20056;-88
2022/03/20 06:38:38;;;;;;;22.77;14.70;;;3.30;62.90;;;;;;6191926;23;20068;-85
2022/03/20 06:41:06;;;;;;;19.58;13.45;;;3.30;62.80;;;;;;6188648;23;20044;-86
2022/03/20 06:43:32;;;;;;;22.23;13.93;;;3.30;62.70;;;;;;6185932;23;20067;-86
2022/03/20 06:45:57;;;;;;;20.88;13.82;;;3.30;62.50;;;;;;6186212;23;20369;-87
2022/03/20 06:48:24;;;;;;;19.58;13.82;;;3.40;62.40;;;;;;6187374;23;20028;-85
2022/03/20 06:50:50;;;;;;;21.15;14.25;;;3.40;62.40;;;;;;6185805;23;20024;-86
2022/03/20 06:53:17;;;;;;;23.50;14.60;;;3.40;62.00;;;;;;6186327;23;20495;-86
2022/03/20 06:55:44;;;;;;;21.17;13.73;;;3.50;62.00;;;;;;6187429;23;20460;-87
2022/03/20 06:58:10;;;;;;;22.73;14.77;;;3.50;62.00;;;;;;6186238;23;20017;-87
2022/03/20 07:00:36;;;;;;;24.65;15.30;;;3.50;61.80;;;;;;6187916;23;20453;-86
2022/03/20 07:03:03;;;;;;;21.52;15.77;;;3.60;61.50;;;;;;6136489;23;20017;-86
2022/03/20 07:05:33;;;;;;;23.75;15.82;;;3.60;61.20;;;;;;6185998;23;20028;-86
2022/03/20 07:08:04;;;;;;;22.67;15.10;;;3.60;61.10;;;;;;6187439;23;20024;-87
2022/03/20 07:10:30;;;;;;;23.83;15.77;;;3.70;61.10;;;;;;6186983;23;20052;-85
2022/03/20 07:15:45;;;;;;;20.92;15.27;;;3.70;61.00;;;;;;6184918;23;20323;-86
2022/03/20 07:18:12;;;;;;;21.50;14.63;;;3.80;60.40;;;;;;6186874;23;20015;-85
2022/03/20 07:20:39;;;;;;;23.92;15.00;;;3.80;60.50;;;;;;6185305;23;20023;-88
2022/03/20 07:23:09;;;;;;;20.98;14.68;;;3.90;60.30;;;;;;6186770;23;20017;-86
2022/03/20 07:31:04;;;;;;;24.73;15.30;;;4.00;59.80;;;;;;6186396;23;20029;-87
2022/03/20 07:33:32;;;;;;;28.80;15.48;;;4.10;59.50;;;;;;6188135;23;20093;-85
2022/03/20 07:35:59;;;;;;;22.20;15.10;;;4.10;59.60;;;;;;6185245;23;20429;-87
2022/03/20 07:38:26;;;;;;;23.52;14.30;;;4.20;59.30;;;;;;6185133;23;20028;-87
2022/03/20 07:40:51;;;;;;;22.75;14.57;;;4.30;59.10;;;;;;6187244;23;20048;-84
2022/03/20 07:43:17;;;;;;;22.50;15.07;;;4.30;58.70;;;;;;6185423;23;20075;-83
2022/03/20 07:45:43;;;;;;;22.20;15.30;;;4.40;58.10;;;;;;6185104;23;20434;-86
2022/03/20 07:48:08;;;;;;;21.13;14.93;;;4.40;58.00;;;;;;6187489;23;20349;-86
2022/03/20 07:50:35;;;;;;;22.98;15.32;;;4.40;58.20;;;;;;6186625;23;20513;-89
2022/03/20 07:53:00;;;;;;;22.88;15.15;;;4.50;58.00;;;;;;6159559;23;20013;-86
2022/03/20 07:55:28;;;;;;;22.05;15.05;;;4.50;57.90;;;;;;6187286;23;20021;-85
2022/03/20 07:57:55;;;;;;;22.55;15.60;;;4.60;57.80;;;;;;6187287;23;20434;-87
2022/03/20 08:00:21;;;;;;;19.63;15.40;;;4.70;57.70;;;;;;6186736;23;20017;-86
2022/03/20 08:02:48;;;;;;;21.48;16.25;;;4.70;56.90;;;;;;6187852;23;20442;-89
2022/03/20 08:05:14;;;;;;;22.50;15.73;;;4.80;57.00;;;;;;6186469;23;20017;-84
2022/03/20 08:07:39;;;;;;;23.20;16.63;;;4.80;56.90;;;;;;6185459;23;20027;-87
2022/03/20 08:10:09;;;;;;;23.45;15.57;;;5.10;56.80;;;;;;6185187;23;20009;-86
2022/03/20 08:12:35;;;;;;;21.48;16.15;;;5.00;56.30;;;;;;6185588;23;20445;-86
2022/03/20 08:15:02;;;;;;;23.98;16.35;;;5.10;56.20;;;;;;6186250;23;20100;-86
2022/03/20 08:17:29;;;;;;;20.45;15.35;;;5.20;55.60;;;;;;6186761;23;20013;-86
2022/03/20 08:19:58;;;;;;;24.65;16.33;;;5.20;55.60;;;;;;6135782;23;20017;-86
2022/03/20 08:22:27;;;;;;;22.42;15.30;;;5.30;55.10;;;;;;6186945;23;20023;-86
2022/03/20 08:24:53;;;;;;;23.90;16.15;;;5.30;54.90;;;;;;6184650;23;20323;-86
2022/03/20 08:27:21;;;;;;;24.42;16.30;;;5.30;55.30;;;;;;6184613;23;20059;-86
2022/03/20 08:29:47;;;;;;;24.42;16.10;;;5.50;55.20;;;;;;6185054;23;20017;-86
2022/03/20 08:32:13;;;;;;;21.08;15.77;;;5.60;54.90;;;;;;6185291;23;20020;-86
2022/03/20 08:34:38;;;;;;;22.05;16.30;;;5.70;54.50;;;;;;6185412;23;20106;-86
2022/03/20 08:37:04;;;;;;;23.75;16.60;;;5.80;54.40;;;;;;6184540;23;20087;-85
2022/03/20 08:39:30;;;;;;;22.33;16.38;;;5.80;54.20;;;;;;6185962;23;20028;-87
2022/03/20 08:41:56;;;;;;;23.30;15.82;;;5.90;54.20;;;;;;6183959;23;20013;-87
2022/03/20 08:44:26;;;;;;;23.40;15.80;;;6.00;53.90;;;;;;6184541;23;20045;-86
2022/03/20 08:46:52;;;;;;;23.67;16.13;;;6.10;53.60;;;;;;6184466;23;20051;-86
2022/03/20 08:49:19;;;;;;;23.80;16.08;;;6.20;53.30;;;;;;6184794;23;20337;-87
2022/03/20 08:51:45;;;;;;;23.95;16.05;;;6.20;52.80;;;;;;6184278;23;20060;-86
2022/03/20 08:54:11;;;;;;;25.55;16.98;;;6.40;52.10;;;;;;6184562;23;20076;-87
2022/03/20 08:56:38;;;;;;;24.10;16.65;;;6.40;52.00;;;;;;6184566;23;20051;-87
2022/03/20 08:59:06;;;;;;;24.42;17.10;;;6.50;51.80;;;;;;6160225;23;20028;-86
2022/03/20 09:01:32;;;;;;;24.63;16.73;;;6.60;51.80;;;;;;6184462;23;20040;-89
2022/03/20 09:03:57;;;;;;;25.98;17.95;;;7.30;51.10;;;;;;6184465;23;20438;-86
2022/03/20 09:06:23;;;;;;;25.77;17.25;;;7.00;50.10;;;;;;6184909;23;20031;-86
2022/03/20 09:08:50;;;;;;;24.75;16.98;;;6.90;49.90;;;;;;6184668;23;20013;-86
2022/03/20 09:11:17;;;;;;;24.08;17.67;;;7.00;49.90;;;;;;6184650;23;20059;-87
2022/03/20 09:13:42;;;;;;;27.10;17.35;;;7.30;49.40;;;;;;6186251;23;20362;-86
2022/03/20 09:19:07;;;;;;;23.83;16.35;;;7.30;48.60;;;;;;6184711;23;20105;-87
2022/03/20 09:21:37;;;;;;;24.10;17.80;;;7.40;48.00;;;;;;6184414;23;20329;-87
2022/03/20 09:24:04;;;;;;;25.58;17.08;;;7.40;47.90;;;;;;6159473;23;20071;-87
2022/03/20 09:26:30;;;;;;;34.42;18.38;;;7.40;47.00;;;;;;6159668;23;20055;-87
2022/03/20 09:28:56;;;;;;;25.45;17.80;;;7.50;46.70;;;;;;6183682;23;20415;-86
2022/03/20 09:31:22;;;;;;;25.25;17.85;;;7.40;47.60;;;;;;6184298;23;20027;-87
2022/03/20 09:33:49;;;;;;;24.98;16.83;;;7.60;46.90;;;;;;6159621;23;20028;-86
2022/03/20 09:36:15;;;;;;;24.38;18.50;;;7.60;46.30;;;;;;6183586;23;20472;-87
2022/03/20 09:38:41;;;;;;;25.45;17.70;;;7.80;46.60;;;;;;6188323;23;20021;-87
2022/03/20 09:41:08;;;;;;;26.48;18.60;;;7.70;45.50;;;;;;6187977;23;20084;-87
2022/03/20 09:43:38;;;;;;;23.67;17.33;;;7.70;45.20;;;;;;6188626;23;20499;-87
2022/03/20 09:46:04;;;;;;;27.75;18.00;;;7.70;45.10;;;;;;6187388;23;20071;-87
2022/03/20 09:48:30;;;;;;;24.08;17.33;;;7.70;45.40;;;;;;6187598;23;20024;-86
2022/03/20 09:51:37;;;;;;;27.40;18.73;;;7.80;46.00;;;;;;6190801;23;20017;-89
2022/03/20 09:54:03;;;;;;;27.88;19.58;;;7.90;45.50;;;;;;6196915;23;20021;-88
2022/03/20 09:56:28;;;;;;;23.83;18.52;;;7.90;45.20;;;;;;6163367;23;20024;-87
2022/03/20 09:58:54;;;;;;;27.20;18.75;;;8.10;45.00;;;;;;6189704;23;20043;-88
2022/03/20 10:01:20;;;;;;;25.52;19.05;;;8.00;44.60;;;;;;6189216;23;20017;-87
2022/03/20 10:03:46;;;;;;;26.40;21.60;;;8.10;44.40;;;;;;6185954;23;20496;-88
2022/03/20 10:10:19;;;;;;;28.55;20.90;;;8.20;45.00;;;;;;6188010;23;20015;-87
2022/03/20 10:12:51;;;;;;;26.35;20.33;;;8.40;45.00;;;;;;6187046;23;20092;-87
2022/03/20 10:15:34;;;;;;;26.20;19.33;;;8.50;44.00;;;;;;6137258;23;20013;-86
2022/03/20 10:18:20;;;;;;;25.08;19.13;;;8.50;43.30;;;;;;6186546;23;20021;-88
2022/03/20 10:21:09;;;;;;;25.30;19.67;;;8.60;42.60;;;;;;6185959;23;20017;-87
2022/03/20 10:23:38;;;;;;;27.35;19.50;;;8.60;42.40;;;;;;6187762;23;20535;-86
2022/03/20 10:26:11;;;;;;;26.08;18.77;;;8.60;43.80;;;;;;6136845;23;20067;-89
2022/03/20 10:28:46;;;;;;;26.73;19.30;;;8.70;43.80;;;;;;6186672;23;20448;-88
2022/03/20 10:31:15;;;;;;;;;;;8.80;43.10;;;;;;6185336;23;20021;-87
2022/03/20 10:33:41;;;;;;;28.98;20.25;;;8.80;42.90;;;;;;6187762;23;19916;-85
2022/03/20 10:36:18;;;;;;;28.67;20.70;;;8.80;43.50;;;;;;6185250;23;20401;-86
2022/03/20 10:38:46;;;;;;;27.50;18.73;;;9.00;44.20;;;;;;6186096;23;20029;-85
2022/03/20 10:41:26;;;;;;;29.48;20.13;;;9.00;43.40;;;;;;6186397;23;20024;-87
2022/03/20 10:43:54;;;;;;;28.05;21.05;;;9.20;42.90;;;;;;6191545;23;20021;-85
2022/03/20 10:46:25;;;;;;;29.95;20.63;;;9.20;43.40;;;;;;6198081;23;20013;-85
2022/03/20 10:48:56;;;;;;;25.65;18.92;;;9.30;43.90;;;;;;6205363;23;20032;-84
2022/03/20 10:51:40;;;;;;;28.17;19.67;;;9.40;42.80;;;;;;6191647;23;20017;-84
2022/03/20 10:54:15;;;;;;;29.10;20.92;;;9.40;42.50;;;;;;6186531;23;20404;-83
2022/03/20 10:56:58;;;;;;;23.38;19.13;;;9.50;42.20;;;;;;6187111;23;20017;-84
2022/03/20 10:59:26;;;;;;;25.13;19.30;;;9.60;43.10;;;;;;6187289;23;20319;-85
2022/03/20 11:01:53;;;;;;;27.80;19.92;;;9.70;42.40;;;;;;6186886;23;20100;-87
2022/03/20 11:05:11;;;;;;;28.63;20.17;;;9.60;41.50;;;;;;6187207;23;20017;-86
2022/03/20 11:07:37;;;;;;;25.90;20.02;;;9.70;41.20;;;;;;6187524;23;20450;-87
2022/03/20 11:10:10;;;;;;;31.75;23.10;;;9.70;42.00;;;;;;6187273;23;20025;-85
2022/03/20 11:12:36;;;;;;;26.73;20.98;;;9.80;41.50;;;;;;6160612;23;20019;-85
2022/03/20 11:15:07;;;;;;;29.30;20.75;;;9.80;41.00;;;;;;6135740;23;20021;-86
2022/03/20 11:17:39;;;;;;;26.02;19.60;;;9.80;41.70;;;;;;6185838;23;20040;-86
2022/03/20 11:20:07;;;;;;;29.90;22.77;;;9.90;41.10;;;;;;6187707;23;20044;-84
2022/03/20 11:22:36;;;;;;;29.08;21.15;;;9.90;40.80;;;;;;6184878;23;20032;-84
2022/03/20 11:25:05;;;;;;;26.45;21.02;;;9.90;40.90;;;;;;6186459;23;20349;-86
2022/03/20 11:27:35;;;;;;;29.20;19.05;;;9.90;40.90;;;;;;6187535;23;20401;-86
2022/03/20 11:30:03;;;;;;;30.65;21.88;;;10.10;41.10;;;;;;6186309;23;20013;-86
2022/03/20 11:32:29;;;;;;;29.65;21.38;;;10.00;41.00;;;;;;6187739;23;20346;-87
2022/03/20 11:35:14;;;;;;;26.35;20.10;;;10.20;41.90;;;;;;6190209;23;20013;-89
2022/03/20 11:37:50;;;;;;;30.40;21.48;;;10.20;41.70;;;;;;6189550;23;20095;-88
2022/03/20 11:40:22;;;;;;;36.67;20.83;;;10.20;41.10;;;;;;6161364;23;20021;-88
2022/03/20 11:43:11;;;;;;;24.20;19.63;;;10.30;41.00;;;;;;6185930;23;20020;-89
2022/03/20 11:45:37;;;;;;;27.58;20.35;;;10.40;40.60;;;;;;6185548;23;20017;-86
2022/03/20 11:48:16;;;;;;;28.40;21.60;;;10.40;40.20;;;;;;6186116;23;20047;-85
2022/03/20 11:50:42;;;;;;;27.98;21.23;;;10.40;40.60;;;;;;6185541;23;20021;-85
2022/03/20 11:53:09;;;;;;;27.83;20.67;;;10.40;40.10;;;;;;6136353;23;20021;-85
2022/03/20 11:55:48;;;;;;;28.73;20.67;;;10.60;40.00;;;;;;6185360;23;20031;-85
2022/03/20 11:58:17;;;;;;;27.33;20.65;;;10.50;40.70;;;;;;6159913;23;20017;-85
2022/03/20 12:00:45;;;;;;;30.10;21.35;;;10.50;40.00;;;;;;6184708;23;20359;-85
2022/03/20 12:03:13;;;;;;;26.65;21.10;;;10.50;40.20;;;;;;6187409;23;20059;-85
2022/03/20 12:05:42;;;;;;;28.08;20.58;;;10.50;40.40;;;;;;6186751;23;20466;-85
2022/03/20 12:08:25;;;;;;;27.08;21.30;;;10.70;40.00;;;;;;6185488;23;20442;-85
2022/03/20 12:10:54;;;;;;;30.08;21.30;;;10.60;39.70;;;;;;6184376;23;20021;-86
2022/03/20 12:13:24;;;;;;;29.88;21.98;;;10.60;40.00;;;;;;6187136;23;20021;-86
2022/03/20 12:15:51;;;;;;;29.40;22.70;;;10.50;39.80;;;;;;6136176;23;20076;-85
2022/03/20 12:18:16;;;;;;;30.25;22.38;;;10.50;40.70;;;;;;6185167;23;20017;-85
2022/03/20 12:20:48;;;;;;;30.55;22.85;;;10.60;40.80;;;;;;6185350;23;20019;-85
2022/03/20 12:23:29;;;;;;;29.17;22.05;;;10.70;40.60;;;;;;6185105;23;20322;-86
2022/03/20 12:25:56;;;;;;;28.02;22.10;;;11.00;39.40;;;;;;6185655;23;20103;-85
2022/03/20 12:28:29;;;;;;;29.90;21.80;;;10.50;39.90;;;;;;6185121;23;20013;-85
2022/03/20 12:30:54;;;;;;;29.27;21.50;;;10.50;39.70;;;;;;6186604;23;20093;-85
2022/03/20 12:33:29;;;;;;;27.85;20.50;;;10.50;40.10;;;;;;6160173;23;20437;-85
2022/03/20 12:35:55;;;;;;;29.88;20.75;;;10.50;39.90;;;;;;6185682;23;20012;-86
2022/03/20 12:38:40;;;;;;;29.98;21.23;;;10.50;40.00;;;;;;6184336;23;20017;-85
2022/03/20 12:41:18;;;;;;;28.65;20.88;;;10.70;39.80;;;;;;6185403;23;20021;-85
2022/03/20 12:43:57;;;;;;;32.08;21.95;;;10.60;39.80;;;;;;6186862;23;20021;-86
2022/03/20 12:46:23;;;;;;;26.83;21.52;;;10.60;40.00;;;;;;6185431;23;20013;-86
2022/03/20 12:48:51;;;;;;;27.20;22.10;;;10.60;40.20;;;;;;6159612;23;20445;-86
2022/03/20 12:51:58;;;;;;;31.63;22.55;;;10.60;40.30;;;;;;6136545;23;20096;-88
2022/03/20 12:54:24;;;;;;;28.63;22.10;;;10.60;40.70;;;;;;6185612;23;20028;-88
2022/03/20 12:56:52;;;;;;;27.38;21.20;;;10.60;40.70;;;;;;6187749;23;20009;-88
2022/03/20 12:59:23;;;;;;;30.50;21.17;;;11.00;40.50;;;;;;6185884;23;20059;-88
2022/03/20 13:01:49;;;;;;;30.65;22.35;;;10.80;40.70;;;;;;6161663;23;20024;-89
2022/03/20 13:04:18;;;;;;;28.88;22.13;;;10.60;40.20;;;;;;6160746;23;20013;-89
2022/03/20 13:06:44;;;;;;;29.02;21.08;;;10.80;40.80;;;;;;6133471;23;20091;-89
2022/03/20 13:09:12;;;;;;;28.27;20.67;;;10.60;40.70;;;;;;6184355;23;20060;-90
2022/03/20 13:11:53;;;;;;;27.17;21.02;;;10.60;40.10;;;;;;6186920;23;20020;-88
2022/03/20 13:14:21;;;;;;;28.05;21.92;;;10.50;39.90;;;;;;6191519;23;20025;-88
2022/03/20 13:16:58;;;;;;;29.17;21.77;;;10.60;40.10;;;;;;6189687;23;20430;-87
2022/03/20 13:19:32;;;;;;;28.00;21.45;;;10.40;40.30;;;;;;6183544;23;20069;-91
2022/03/20 13:22:18;;;;;;;29.30;22.77;;;10.40;40.90;;;;;;6182458;23;20056;-89
2022/03/20 13:24:46;;;;;;;29.80;21.75;;;10.50;40.30;;;;;;6182893;23;20074;-86
2022/03/20 13:27:13;;;;;;;29.40;22.77;;;10.40;40.20;;;;;;6186154;23;20445;-87
2022/03/20 13:29:42;;;;;;;27.90;21.70;;;10.90;40.40;;;;;;6186447;23;20019;-86
2022/03/20 13:32:10;;;;;;;31.00;23.65;;;10.80;40.80;;;;;;6161173;23;20291;-86